sensor_id;sensor_type;location;lat;lon;timestamp;pressure;altitude;pressure_sealevel;temperature;humidity
78888;BME280;68276;49.326;8.690;2023-09-19T00:01:28;99873.25;;;17.79;100.00
78888;BME280;68276;49.326;8.690;2023-09-19T00:03:56;99867.22;;;17.77;100.00
78888;BME280;68276;49.326;8.690;2023-09-19T00:06:22;99869.13;;;17.76;100.00
78888;BME280;68276;49.326;8.690;2023-09-19T00:08:51;99874.69;;;17.70;100.00
78888;BME280;68276;49.326;8.690;2023-09-19T00:11:16;99873.16;;;17.74;100.00
78888;BME280;68276;49.326;8.690;2023-09-19T00:13:41;99866.34;;;17.60;100.00
78888;BME280;68276;49.326;8.690;2023-09-19T00:16:09;99872.63;;;17.60;100.00
78888;BME280;68276;49.326;8.690;2023-09-19T00:18:39;99865.69;;;17.41;100.00
78888;BME280;68276;49.326;8.690;2023-09-19T00:21:04;99871.59;;;17.50;100.00
78888;BME280;68276;49.326;8.690;2023-09-19T00:23:30;99878.66;;;17.51;100.00
78888;BME280;68276;49.326;8.690;2023-09-19T00:26:00;99871.84;;;17.48;100.00
78888;BME280;68276;49.326;8.690;2023-09-19T00:28:26;99881.16;;;17.41;100.00
78888;BME280;68276;49.326;8.690;2023-09-19T00:30:52;99878.44;;;17.41;100.00
78888;BME280;68276;49.326;8.690;2023-09-19T00:33:18;99881.25;;;17.46;100.00
78888;BME280;68276;49.326;8.690;2023-09-19T00:35:48;99890.97;;;17.42;100.00
78888;BME280;68276;49.326;8.690;2023-09-19T00:38:14;99889.28;;;17.41;100.00
78888;BME280;68276;49.326;8.690;2023-09-19T00:40:45;99879.16;;;17.36;100.00
78888;BME280;68276;49.326;8.690;2023-09-19T00:43:11;99887.56;;;17.35;100.00
78888;BME280;68276;49.326;8.690;2023-09-19T00:45:38;99896.44;;;17.18;100.00
78888;BME280;68276;49.326;8.690;2023-09-19T00:48:04;99896.19;;;17.20;100.00
78888;BME280;68276;49.326;8.690;2023-09-19T00:50:34;99897.72;;;17.16;100.00
78888;BME280;68276;49.326;8.690;2023-09-19T00:53:00;99906.81;;;17.22;100.00
78888;BME280;68276;49.326;8.690;2023-09-19T00:55:25;99904.56;;;17.18;100.00
78888;BME280;68276;49.326;8.690;2023-09-19T00:57:51;99903.50;;;17.19;100.00
78888;BME280;68276;49.326;8.690;2023-09-19T01:00:18;99904.81;;;17.17;100.00
78888;BME280;68276;49.326;8.690;2023-09-19T01:02:45;99905.06;;;17.15;100.00
78888;BME280;68276;49.326;8.690;2023-09-19T01:05:11;99906.44;;;17.18;100.00
78888;BME280;68276;49.326;8.690;2023-09-19T01:07:40;99912.59;;;17.13;100.00
78888;BME280;68276;49.326;8.690;2023-09-19T01:10:17;99918.16;;;17.18;100.00
78888;BME280;68276;49.326;8.690;2023-09-19T01:21:20;99932.41;;;17.26;100.00
78888;BME280;68276;49.326;8.690;2023-09-19T01:29:33;99926.63;;;17.34;100.00
78888;BME280;68276;49.326;8.690;2023-09-19T01:32:03;99928.88;;;17.37;100.00
78888;BME280;68276;49.326;8.690;2023-09-19T01:34:56;99926.75;;;17.27;100.00
78888;BME280;68276;49.326;8.690;2023-09-19T01:37:24;99926.41;;;17.24;100.00
78888;BME280;68276;49.326;8.690;2023-09-19T01:40:02;99933.94;;;17.22;100.00
78888;BME280;68276;49.326;8.690;2023-09-19T01:42:57;99933.50;;;17.25;100.00
78888;BME280;68276;49.326;8.690;2023-09-19T01:45:50;99931.81;;;17.24;100.00
78888;BME280;68276;49.326;8.690;2023-09-19T01:48:46;99929.47;;;17.27;100.00
78888;BME280;68276;49.326;8.690;2023-09-19T01:51:21;99929.56;;;17.32;100.00
78888;BME280;68276;49.326;8.690;2023-09-19T01:54:03;99939.25;;;17.28;100.00
78888;BME280;68276;49.326;8.690;2023-09-19T01:56:57;99942.09;;;17.22;100.00
78888;BME280;68276;49.326;8.690;2023-09-19T01:59:34;99940.19;;;17.34;100.00
78888;BME280;68276;49.326;8.690;2023-09-19T02:02:00;99952.47;;;17.36;100.00
78888;BME280;68276;49.326;8.690;2023-09-19T02:04:27;99954.25;;;17.31;100.00
78888;BME280;68276;49.326;8.690;2023-09-19T02:06:53;99947.97;;;17.30;100.00
78888;BME280;68276;49.326;8.690;2023-09-19T02:09:18;99955.19;;;17.36;100.00
78888;BME280;68276;49.326;8.690;2023-09-19T02:11:44;99954.72;;;17.28;100.00
78888;BME280;68276;49.326;8.690;2023-09-19T02:14:09;99951.88;;;17.34;100.00
78888;BME280;68276;49.326;8.690;2023-09-19T02:16:35;99958.59;;;17.32;100.00
78888;BME280;68276;49.326;8.690;2023-09-19T02:19:00;99956.97;;;17.31;100.00
78888;BME280;68276;49.326;8.690;2023-09-19T02:21:30;99959.53;;;17.37;100.00
78888;BME280;68276;49.326;8.690;2023-09-19T02:23:55;99966.50;;;17.45;100.00
78888;BME280;68276;49.326;8.690;2023-09-19T02:26:21;99969.47;;;17.43;100.00
78888;BME280;68276;49.326;8.690;2023-09-19T02:28:47;99973.38;;;17.36;100.00
78888;BME280;68276;49.326;8.690;2023-09-19T02:31:12;99979.97;;;17.40;100.00
78888;BME280;68276;49.326;8.690;2023-09-19T02:33:37;99974.22;;;17.48;100.00
78888;BME280;68276;49.326;8.690;2023-09-19T02:36:04;99971.13;;;17.56;100.00
78888;BME280;68276;49.326;8.690;2023-09-19T02:38:29;99972.66;;;17.52;100.00
78888;BME280;68276;49.326;8.690;2023-09-19T02:40:55;99975.38;;;17.52;100.00
78888;BME280;68276;49.326;8.690;2023-09-19T02:43:22;99974.16;;;17.59;100.00
78888;BME280;68276;49.326;8.690;2023-09-19T02:45:48;99983.06;;;17.55;100.00
78888;BME280;68276;49.326;8.690;2023-09-19T02:48:18;99993.31;;;17.41;100.00
78888;BME280;68276;49.326;8.690;2023-09-19T02:50:44;99989.66;;;17.36;100.00
78888;BME280;68276;49.326;8.690;2023-09-19T02:53:10;99988.38;;;17.38;100.00
78888;BME280;68276;49.326;8.690;2023-09-19T02:55:39;99986.97;;;17.24;100.00
78888;BME280;68276;49.326;8.690;2023-09-19T02:58:08;99988.47;;;17.20;100.00
78888;BME280;68276;49.326;8.690;2023-09-19T03:00:36;99989.56;;;17.19;100.00
78888;BME280;68276;49.326;8.690;2023-09-19T03:03:01;99996.63;;;17.20;100.00
78888;BME280;68276;49.326;8.690;2023-09-19T03:05:27;99991.31;;;17.13;100.00
78888;BME280;68276;49.326;8.690;2023-09-19T03:07:56;99990.25;;;17.26;100.00
78888;BME280;68276;49.326;8.690;2023-09-19T03:10:22;99986.81;;;17.31;100.00
78888;BME280;68276;49.326;8.690;2023-09-19T03:12:48;99981.41;;;17.31;100.00
78888;BME280;68276;49.326;8.690;2023-09-19T03:15:14;99988.25;;;17.33;100.00
78888;BME280;68276;49.326;8.690;2023-09-19T03:17:44;100000.50;;;17.12;100.00
78888;BME280;68276;49.326;8.690;2023-09-19T03:20:10;100002.28;;;17.18;100.00
78888;BME280;68276;49.326;8.690;2023-09-19T03:22:38;99999.13;;;17.10;100.00
78888;BME280;68276;49.326;8.690;2023-09-19T03:25:03;100011.97;;;17.14;100.00
78888;BME280;68276;49.326;8.690;2023-09-19T03:27:36;100003.69;;;17.09;100.00
78888;BME280;68276;49.326;8.690;2023-09-19T03:30:01;100010.31;;;17.02;100.00
78888;BME280;68276;49.326;8.690;2023-09-19T03:32:31;100010.53;;;17.00;100.00
78888;BME280;68276;49.326;8.690;2023-09-19T03:34:57;100016.19;;;16.99;100.00
78888;BME280;68276;49.326;8.690;2023-09-19T03:37:22;100014.09;;;17.01;100.00
78888;BME280;68276;49.326;8.690;2023-09-19T03:39:48;100013.25;;;17.00;100.00
78888;BME280;68276;49.326;8.690;2023-09-19T03:42:13;100026.13;;;17.05;100.00
78888;BME280;68276;49.326;8.690;2023-09-19T03:44:38;100025.53;;;16.91;100.00
78888;BME280;68276;49.326;8.690;2023-09-19T03:47:04;100021.38;;;17.00;100.00
78888;BME280;68276;49.326;8.690;2023-09-19T03:49:30;100023.19;;;17.06;100.00
78888;BME280;68276;49.326;8.690;2023-09-19T03:51:55;100023.97;;;16.95;100.00
78888;BME280;68276;49.326;8.690;2023-09-19T03:54:21;100032.25;;;17.00;100.00
78888;BME280;68276;49.326;8.690;2023-09-19T03:56:46;100028.31;;;16.85;100.00
78888;BME280;68276;49.326;8.690;2023-09-19T03:59:12;100032.13;;;16.95;100.00
78888;BME280;68276;49.326;8.690;2023-09-19T04:01:37;100030.13;;;17.02;100.00
78888;BME280;68276;49.326;8.690;2023-09-19T04:04:03;100035.19;;;16.99;100.00
78888;BME280;68276;49.326;8.690;2023-09-19T04:06:34;100032.59;;;16.92;100.00
78888;BME280;68276;49.326;8.690;2023-09-19T04:09:00;100036.63;;;17.01;100.00
78888;BME280;68276;49.326;8.690;2023-09-19T04:11:26;100027.88;;;16.99;100.00
78888;BME280;68276;49.326;8.690;2023-09-19T04:13:52;100029.53;;;17.00;100.00
78888;BME280;68276;49.326;8.690;2023-09-19T04:16:17;100036.28;;;16.98;100.00
78888;BME280;68276;49.326;8.690;2023-09-19T04:18:43;100036.63;;;16.90;100.00
78888;BME280;68276;49.326;8.690;2023-09-19T04:21:08;100040.63;;;16.87;100.00
78888;BME280;68276;49.326;8.690;2023-09-19T04:23:34;100051.81;;;16.79;100.00
78888;BME280;68276;49.326;8.690;2023-09-19T04:25:59;100047.44;;;16.78;100.00
78888;BME280;68276;49.326;8.690;2023-09-19T04:28:25;100041.50;;;16.70;100.00
78888;BME280;68276;49.326;8.690;2023-09-19T04:30:53;100047.16;;;16.68;100.00
78888;BME280;68276;49.326;8.690;2023-09-19T04:33:18;100051.69;;;16.74;100.00
78888;BME280;68276;49.326;8.690;2023-09-19T04:35:44;100049.28;;;16.66;100.00
78888;BME280;68276;49.326;8.690;2023-09-19T04:38:09;100050.66;;;16.57;100.00
78888;BME280;68276;49.326;8.690;2023-09-19T04:40:34;100050.66;;;16.57;100.00
78888;BME280;68276;49.326;8.690;2023-09-19T04:43:00;100063.72;;;16.49;100.00
78888;BME280;68276;49.326;8.690;2023-09-19T04:45:27;100066.88;;;16.46;100.00
78888;BME280;68276;49.326;8.690;2023-09-19T04:47:53;100066.66;;;16.47;100.00
78888;BME280;68276;49.326;8.690;2023-09-19T04:50:19;100067.28;;;16.49;100.00
78888;BME280;68276;49.326;8.690;2023-09-19T04:52:49;100070.16;;;16.36;100.00
78888;BME280;68276;49.326;8.690;2023-09-19T04:55:16;100072.69;;;16.31;100.00
78888;BME280;68276;49.326;8.690;2023-09-19T04:57:43;100073.28;;;16.33;100.00
78888;BME280;68276;49.326;8.690;2023-09-19T05:00:12;100081.66;;;16.32;100.00
78888;BME280;68276;49.326;8.690;2023-09-19T05:02:40;100085.94;;;16.39;100.00
78888;BME280;68276;49.326;8.690;2023-09-19T05:05:07;100085.47;;;16.42;100.00
78888;BME280;68276;49.326;8.690;2023-09-19T05:07:33;100078.47;;;16.53;100.00
78888;BME280;68276;49.326;8.690;2023-09-19T05:09:59;100079.75;;;16.50;100.00
78888;BME280;68276;49.326;8.690;2023-09-19T05:12:26;100077.78;;;16.57;100.00
78888;BME280;68276;49.326;8.690;2023-09-19T05:14:52;100076.06;;;16.45;100.00
78888;BME280;68276;49.326;8.690;2023-09-19T05:17:17;100081.56;;;16.38;100.00
78888;BME280;68276;49.326;8.690;2023-09-19T05:19:43;100087.13;;;16.43;100.00
78888;BME280;68276;49.326;8.690;2023-09-19T05:22:08;100087.53;;;16.47;100.00
78888;BME280;68276;49.326;8.690;2023-09-19T05:24:34;100096.25;;;16.49;100.00
78888;BME280;68276;49.326;8.690;2023-09-19T05:26:59;100105.47;;;16.48;100.00
78888;BME280;68276;49.326;8.690;2023-09-19T05:29:25;100106.22;;;16.55;100.00
78888;BME280;68276;49.326;8.690;2023-09-19T05:31:51;100110.94;;;16.59;100.00
78888;BME280;68276;49.326;8.690;2023-09-19T05:34:16;100113.28;;;16.56;100.00
78888;BME280;68276;49.326;8.690;2023-09-19T05:36:42;100119.16;;;16.82;100.00
78888;BME280;68276;49.326;8.690;2023-09-19T05:39:07;100116.47;;;16.82;100.00
78888;BME280;68276;49.326;8.690;2023-09-19T05:41:35;100119.16;;;16.82;100.00
78888;BME280;68276;49.326;8.690;2023-09-19T05:44:02;100120.69;;;16.78;100.00
78888;BME280;68276;49.326;8.690;2023-09-19T05:46:28;100119.78;;;16.84;100.00
78888;BME280;68276;49.326;8.690;2023-09-19T05:48:55;100120.69;;;16.78;100.00
78888;BME280;68276;49.326;8.690;2023-09-19T05:51:22;100118.44;;;16.75;100.00
78888;BME280;68276;49.326;8.690;2023-09-19T05:53:48;100129.56;;;16.85;100.00
78888;BME280;68276;49.326;8.690;2023-09-19T05:56:14;100131.59;;;16.90;100.00
78888;BME280;68276;49.326;8.690;2023-09-19T05:58:40;100126.88;;;16.97;100.00
78888;BME280;68276;49.326;8.690;2023-09-19T06:01:09;100130.28;;;16.92;100.00
78888;BME280;68276;49.326;8.690;2023-09-19T06:03:35;100125.75;;;16.75;100.00
78888;BME280;68276;49.326;8.690;2023-09-19T06:06:01;100138.94;;;16.71;100.00
78888;BME280;68276;49.326;8.690;2023-09-19T06:08:26;100140.47;;;16.67;100.00
78888;BME280;68276;49.326;8.690;2023-09-19T06:10:53;100136.34;;;16.76;100.00
78888;BME280;68276;49.326;8.690;2023-09-19T06:13:18;100135.56;;;16.76;100.00
78888;BME280;68276;49.326;8.690;2023-09-19T06:15:45;100141.25;;;16.86;100.00
78888;BME280;68276;49.326;8.690;2023-09-19T06:18:13;100141.28;;;16.97;100.00
78888;BME280;68276;49.326;8.690;2023-09-19T06:20:45;100151.41;;;16.90;100.00
78888;BME280;68276;49.326;8.690;2023-09-19T06:23:11;100160.53;;;17.07;100.00
78888;BME280;68276;49.326;8.690;2023-09-19T06:25:36;100161.88;;;17.16;100.00
78888;BME280;68276;49.326;8.690;2023-09-19T06:28:02;100164.94;;;17.20;100.00
78888;BME280;68276;49.326;8.690;2023-09-19T06:30:30;100170.06;;;17.40;100.00
78888;BME280;68276;49.326;8.690;2023-09-19T06:32:58;100179.00;;;17.29;100.00
78888;BME280;68276;49.326;8.690;2023-09-19T06:35:23;100178.28;;;17.22;100.00
78888;BME280;68276;49.326;8.690;2023-09-19T06:37:49;100180.56;;;17.25;100.00
78888;BME280;68276;49.326;8.690;2023-09-19T06:40:16;100185.28;;;17.29;100.00
78888;BME280;68276;49.326;8.690;2023-09-19T06:42:45;100184.91;;;17.26;100.00
78888;BME280;68276;49.326;8.690;2023-09-19T06:45:12;100173.81;;;17.27;100.00
78888;BME280;68276;49.326;8.690;2023-09-19T06:47:42;100182.31;;;17.31;100.00
78888;BME280;68276;49.326;8.690;2023-09-19T06:50:08;100178.63;;;17.13;100.00
78888;BME280;68276;49.326;8.690;2023-09-19T06:52:39;100187.38;;;17.15;100.00
78888;BME280;68276;49.326;8.690;2023-09-19T06:55:05;100186.66;;;17.20;100.00
78888;BME280;68276;49.326;8.690;2023-09-19T06:57:32;100193.78;;;17.33;100.00
78888;BME280;68276;49.326;8.690;2023-09-19T06:59:57;100188.91;;;17.23;100.00
78888;BME280;68276;49.326;8.690;2023-09-19T07:02:23;100198.16;;;17.34;100.00
78888;BME280;68276;49.326;8.690;2023-09-19T07:04:49;100200.50;;;17.30;100.00
78888;BME280;68276;49.326;8.690;2023-09-19T07:07:15;100204.81;;;17.19;100.00
78888;BME280;68276;49.326;8.690;2023-09-19T07:09:41;100200.94;;;17.15;100.00
78888;BME280;68276;49.326;8.690;2023-09-19T07:12:07;100206.03;;;17.24;100.00
78888;BME280;68276;49.326;8.690;2023-09-19T07:14:33;100210.69;;;17.35;100.00
78888;BME280;68276;49.326;8.690;2023-09-19T07:16:58;100209.66;;;17.47;100.00
78888;BME280;68276;49.326;8.690;2023-09-19T07:19:25;100207.09;;;17.52;100.00
78888;BME280;68276;49.326;8.690;2023-09-19T07:21:53;100219.25;;;17.50;100.00
78888;BME280;68276;49.326;8.690;2023-09-19T07:24:19;100215.94;;;17.48;100.00
78888;BME280;68276;49.326;8.690;2023-09-19T07:26:45;100220.22;;;17.67;100.00
78888;BME280;68276;49.326;8.690;2023-09-19T07:29:10;100225.41;;;17.68;100.00
78888;BME280;68276;49.326;8.690;2023-09-19T07:31:36;100222.38;;;17.88;100.00
78888;BME280;68276;49.326;8.690;2023-09-19T07:34:01;100231.38;;;18.00;100.00
78888;BME280;68276;49.326;8.690;2023-09-19T07:36:29;100231.44;;;17.82;100.00
78888;BME280;68276;49.326;8.690;2023-09-19T07:38:54;100230.66;;;17.93;100.00
78888;BME280;68276;49.326;8.690;2023-09-19T07:41:21;100238.00;;;18.04;100.00
78888;BME280;68276;49.326;8.690;2023-09-19T07:43:48;100244.97;;;18.23;100.00
78888;BME280;68276;49.326;8.690;2023-09-19T07:46:13;100240.22;;;17.95;100.00
78888;BME280;68276;49.326;8.690;2023-09-19T07:48:38;100245.03;;;17.82;100.00
78888;BME280;68276;49.326;8.690;2023-09-19T07:51:06;100258.31;;;18.13;98.72
78888;BME280;68276;49.326;8.690;2023-09-19T07:53:33;100241.75;;;18.26;97.03
78888;BME280;68276;49.326;8.690;2023-09-19T07:56:07;100248.03;;;18.50;95.22
78888;BME280;68276;49.326;8.690;2023-09-19T07:58:34;100256.91;;;18.45;96.49
78888;BME280;68276;49.326;8.690;2023-09-19T08:01:07;100264.25;;;18.56;93.94
78888;BME280;68276;49.326;8.690;2023-09-19T08:03:33;100255.00;;;18.57;89.51
78888;BME280;68276;49.326;8.690;2023-09-19T08:05:59;100263.78;;;18.59;89.32
78888;BME280;68276;49.326;8.690;2023-09-19T08:08:26;100260.09;;;18.54;86.15
78888;BME280;68276;49.326;8.690;2023-09-19T08:10:55;100274.44;;;18.49;85.64
78888;BME280;68276;49.326;8.690;2023-09-19T08:13:25;100272.06;;;18.53;85.58
78888;BME280;68276;49.326;8.690;2023-09-19T08:15:51;100272.88;;;18.65;88.44
78888;BME280;68276;49.326;8.690;2023-09-19T08:18:18;100273.69;;;18.77;84.47
78888;BME280;68276;49.326;8.690;2023-09-19T08:20:49;100268.19;;;18.88;86.49
78888;BME280;68276;49.326;8.690;2023-09-19T08:23:15;100271.47;;;19.02;85.36
78888;BME280;68276;49.326;8.690;2023-09-19T08:25:42;100278.84;;;18.90;85.75
78888;BME280;68276;49.326;8.690;2023-09-19T08:28:07;100278.63;;;19.19;83.83
78888;BME280;68276;49.326;8.690;2023-09-19T08:30:37;100281.06;;;19.04;84.57
78888;BME280;68276;49.326;8.690;2023-09-19T08:33:05;100284.59;;;19.05;82.14
78888;BME280;68276;49.326;8.690;2023-09-19T08:35:31;100273.88;;;19.26;79.70
78888;BME280;68276;49.326;8.690;2023-09-19T08:37:57;100309.13;;;18.93;82.39
78888;BME280;68276;49.326;8.690;2023-09-19T08:40:22;100285.72;;;18.92;81.95
78888;BME280;68276;49.326;8.690;2023-09-19T08:42:53;100298.69;;;19.02;82.45
78888;BME280;68276;49.326;8.690;2023-09-19T08:45:20;100305.97;;;18.85;82.89
78888;BME280;68276;49.326;8.690;2023-09-19T08:54:03;100304.88;;;18.86;81.86
78888;BME280;68276;49.326;8.690;2023-09-19T08:56:35;100290.03;;;19.16;80.66
78888;BME280;68276;49.326;8.690;2023-09-19T08:59:06;100292.56;;;19.34;82.14
78888;BME280;68276;49.326;8.690;2023-09-19T09:01:35;100297.56;;;19.38;80.59
78888;BME280;68276;49.326;8.690;2023-09-19T09:04:02;100301.06;;;19.50;78.78
78888;BME280;68276;49.326;8.690;2023-09-19T09:06:28;100295.13;;;19.53;72.90
78888;BME280;68276;49.326;8.690;2023-09-19T09:08:55;100286.69;;;19.54;72.74
78888;BME280;68276;49.326;8.690;2023-09-19T09:11:21;100291.91;;;19.56;72.78
78888;BME280;68276;49.326;8.690;2023-09-19T09:13:50;100291.91;;;19.56;70.04
78888;BME280;68276;49.326;8.690;2023-09-19T09:16:15;100290.34;;;19.60;68.64
78888;BME280;68276;49.326;8.690;2023-09-19T09:18:45;100298.38;;;19.66;68.52
78888;BME280;68276;49.326;8.690;2023-09-19T09:21:12;100303.41;;;19.74;69.08
78888;BME280;68276;49.326;8.690;2023-09-19T09:23:38;100293.84;;;19.72;70.16
78888;BME280;68276;49.326;8.690;2023-09-19T09:26:04;100308.44;;;19.66;68.85
78888;BME280;68276;49.326;8.690;2023-09-19T09:28:33;100310.56;;;19.64;67.56
78888;BME280;68276;49.326;8.690;2023-09-19T09:30:59;100316.56;;;19.77;67.71
78888;BME280;68276;49.326;8.690;2023-09-19T09:33:27;100304.47;;;19.73;67.84
78888;BME280;68276;49.326;8.690;2023-09-19T09:35:55;100312.16;;;19.76;65.25
78888;BME280;68276;49.326;8.690;2023-09-19T09:38:27;100301.03;;;19.94;64.74
78888;BME280;68276;49.326;8.690;2023-09-19T09:40:54;100309.56;;;19.98;64.39
78888;BME280;68276;49.326;8.690;2023-09-19T09:43:34;100310.28;;;19.77;65.02
78888;BME280;68276;49.326;8.690;2023-09-19T09:48:42;100316.09;;;19.52;62.69
78888;BME280;68276;49.326;8.690;2023-09-19T09:51:11;100323.03;;;19.31;63.98
78888;BME280;68276;49.326;8.690;2023-09-19T09:53:42;100310.88;;;19.51;62.19
78888;BME280;68276;49.326;8.690;2023-09-19T09:56:10;100312.66;;;19.73;60.97
78888;BME280;68276;49.326;8.690;2023-09-19T10:01:13;100329.34;;;20.21;59.32
78888;BME280;68276;49.326;8.690;2023-09-19T10:03:41;100327.97;;;20.07;59.59
78888;BME280;68276;49.326;8.690;2023-09-19T10:06:14;100297.97;;;20.07;59.81
78888;BME280;68276;49.326;8.690;2023-09-19T10:09:05;100301.38;;;20.14;60.16
78888;BME280;68276;49.326;8.690;2023-09-19T10:11:43;100302.16;;;20.43;59.58
78888;BME280;68276;49.326;8.690;2023-09-19T10:14:10;100299.59;;;20.20;59.10
78888;BME280;68276;49.326;8.690;2023-09-19T10:16:40;100303.81;;;20.27;60.54
78888;BME280;68276;49.326;8.690;2023-09-19T10:19:11;100306.53;;;20.27;59.33
78888;BME280;68276;49.326;8.690;2023-09-19T10:21:41;100288.50;;;20.10;59.87
78888;BME280;68276;49.326;8.690;2023-09-19T10:24:08;100286.91;;;20.47;59.19
78888;BME280;68276;49.326;8.690;2023-09-19T10:26:36;100287.34;;;20.77;58.29
78888;BME280;68276;49.326;8.690;2023-09-19T10:29:02;100281.75;;;20.67;58.11
78888;BME280;68276;49.326;8.690;2023-09-19T10:31:32;100282.66;;;20.56;58.07
78888;BME280;68276;49.326;8.690;2023-09-19T10:34:03;100292.41;;;20.69;57.63
78888;BME280;68276;49.326;8.690;2023-09-19T10:36:32;100277.31;;;20.83;57.79
78888;BME280;68276;49.326;8.690;2023-09-19T10:39:02;100276.69;;;21.19;56.86
78888;BME280;68276;49.326;8.690;2023-09-19T10:41:32;100273.91;;;21.40;55.31
78888;BME280;68276;49.326;8.690;2023-09-19T10:44:03;100271.09;;;21.57;54.09
78888;BME280;68276;49.326;8.690;2023-09-19T10:46:31;100277.97;;;21.33;55.19
78888;BME280;68276;49.326;8.690;2023-09-19T10:49:01;100274.53;;;21.47;53.87
78888;BME280;68276;49.326;8.690;2023-09-19T10:51:42;100268.78;;;21.71;52.54
78888;BME280;68276;49.326;8.690;2023-09-19T10:54:12;100270.97;;;21.74;51.25
78888;BME280;68276;49.326;8.690;2023-09-19T10:56:43;100274.63;;;21.79;51.74
78888;BME280;68276;49.326;8.690;2023-09-19T10:59:19;100271.38;;;21.55;51.29
78888;BME280;68276;49.326;8.690;2023-09-19T11:01:46;100269.69;;;21.54;50.96
78888;BME280;68276;49.326;8.690;2023-09-19T11:07:03;100271.56;;;22.02;51.40
78888;BME280;68276;49.326;8.690;2023-09-19T11:14:54;100277.41;;;22.16;50.08
78888;BME280;68276;49.326;8.690;2023-09-19T11:30:34;100254.31;;;22.02;49.61
78888;BME280;68276;49.326;8.690;2023-09-19T11:33:30;100255.09;;;21.97;50.21
78888;BME280;68276;49.326;8.690;2023-09-19T11:46:27;100244.47;;;21.47;52.58
78888;BME280;68276;49.326;8.690;2023-09-19T11:48:53;100251.69;;;21.32;52.73
78888;BME280;68276;49.326;8.690;2023-09-19T11:51:25;100236.72;;;21.13;53.75
78888;BME280;68276;49.326;8.690;2023-09-19T11:53:56;100243.22;;;21.33;53.85
78888;BME280;68276;49.326;8.690;2023-09-19T11:56:25;100233.09;;;21.29;52.76
78888;BME280;68276;49.326;8.690;2023-09-19T11:58:55;100234.19;;;21.28;51.70
78888;BME280;68276;49.326;8.690;2023-09-19T12:01:26;100236.47;;;21.68;51.27
78888;BME280;68276;49.326;8.690;2023-09-19T12:03:55;100227.59;;;21.50;51.27
78888;BME280;68276;49.326;8.690;2023-09-19T12:06:25;100220.75;;;21.80;50.81
78888;BME280;68276;49.326;8.690;2023-09-19T12:08:52;100252.81;;;22.21;48.94
78888;BME280;68276;49.326;8.690;2023-09-19T12:11:19;100215.81;;;22.18;48.18
78888;BME280;68276;49.326;8.690;2023-09-19T12:13:47;100209.56;;;22.18;49.17
78888;BME280;68276;49.326;8.690;2023-09-19T12:16:18;100222.94;;;22.56;48.65
78888;BME280;68276;49.326;8.690;2023-09-19T12:18:48;100217.31;;;22.36;48.03
78888;BME280;68276;49.326;8.690;2023-09-19T12:21:26;100199.50;;;22.75;47.31
78888;BME280;68276;49.326;8.690;2023-09-19T12:26:51;100195.06;;;22.69;46.34
78888;BME280;68276;49.326;8.690;2023-09-19T12:29:19;100200.06;;;22.82;46.51
78888;BME280;68276;49.326;8.690;2023-09-19T12:34:26;100196.22;;;22.88;46.24
78888;BME280;68276;49.326;8.690;2023-09-19T12:37:07;100195.91;;;22.75;47.08
78888;BME280;68276;49.326;8.690;2023-09-19T12:39:50;100192.13;;;22.86;47.31
78888;BME280;68276;49.326;8.690;2023-09-19T12:42:21;100195.16;;;22.89;46.77
78888;BME280;68276;49.326;8.690;2023-09-19T12:44:49;100194.81;;;22.76;46.52
78888;BME280;68276;49.326;8.690;2023-09-19T12:47:20;100191.94;;;23.27;45.50
78888;BME280;68276;49.326;8.690;2023-09-19T12:50:10;100190.91;;;23.43;45.21
78888;BME280;68276;49.326;8.690;2023-09-19T12:52:46;100189.00;;;23.29;44.21
78888;BME280;68276;49.326;8.690;2023-09-19T12:55:28;100189.00;;;23.54;43.29
78888;BME280;68276;49.326;8.690;2023-09-19T13:00:43;100187.34;;;24.18;43.00
78888;BME280;68276;49.326;8.690;2023-09-19T13:03:24;100177.72;;;24.26;42.82
78888;BME280;68276;49.326;8.690;2023-09-19T13:05:58;100187.28;;;24.38;42.31
78888;BME280;68276;49.326;8.690;2023-09-19T13:08:37;100178.25;;;24.38;41.97
78888;BME280;68276;49.326;8.690;2023-09-19T13:11:15;100179.16;;;25.74;40.02
78888;BME280;68276;49.326;8.690;2023-09-19T13:13:46;100169.31;;;26.49;38.54
78888;BME280;68276;49.326;8.690;2023-09-19T13:16:19;100167.31;;;26.31;38.27
78888;BME280;68276;49.326;8.690;2023-09-19T13:18:53;100171.69;;;26.37;38.19
78888;BME280;68276;49.326;8.690;2023-09-19T13:21:34;100172.53;;;26.09;38.78
78888;BME280;68276;49.326;8.690;2023-09-19T13:24:19;100160.75;;;26.74;37.15
78888;BME280;68276;49.326;8.690;2023-09-19T13:26:44;100161.56;;;27.36;35.88
78888;BME280;68276;49.326;8.690;2023-09-19T13:29:11;100155.09;;;26.42;37.11
78888;BME280;68276;49.326;8.690;2023-09-19T13:31:36;100161.50;;;25.75;39.25
78888;BME280;68276;49.326;8.690;2023-09-19T13:34:06;100164.56;;;26.08;39.00
78888;BME280;68276;49.326;8.690;2023-09-19T13:36:32;100157.16;;;25.98;39.44
78888;BME280;68276;49.326;8.690;2023-09-19T13:38:57;100155.72;;;26.11;39.08
78888;BME280;68276;49.326;8.690;2023-09-19T13:41:35;100141.66;;;27.20;37.42
78888;BME280;68276;49.326;8.690;2023-09-19T13:44:04;100152.81;;;27.47;36.17
78888;BME280;68276;49.326;8.690;2023-09-19T13:46:29;100154.22;;;27.26;36.34
78888;BME280;68276;49.326;8.690;2023-09-19T13:48:58;100145.34;;;26.73;37.68
78888;BME280;68276;49.326;8.690;2023-09-19T13:51:25;100143.50;;;27.43;36.32
78888;BME280;68276;49.326;8.690;2023-09-19T13:53:51;100138.47;;;26.71;37.34
78888;BME280;68276;49.326;8.690;2023-09-19T13:56:16;100139.31;;;26.24;38.28
78888;BME280;68276;49.326;8.690;2023-09-19T13:58:42;100142.88;;;26.48;37.41